METAR - Ísland

Uppfært síðast 22.08.2018 - kl. 01:07

SIGMET síðustu 6 klst.

Engin SIGMET skeyti bárust síðustu 6 klst.

METAR síðustu 3 klst

Flugv.TímiSkeyti
BIAR2018-08-22 01.00METAR BIAR 220100Z 33006KT 9999 DZ OVC013 09/08 Q1002
BIAR2018-08-22 00.00METAR BIAR 220000Z 34008KT 310V010 9999 -DZ OVC014 09/08 Q1002
BIAR2018-08-21 23.00METAR BIAR 212300Z 33008KT 9999 DZ FEW005 BKN017 OVC043 09/08 Q1002
BIEG2018-08-22 01.00METAR BIEG 220100Z 13002KT 9999 -SHRA FEW023 OVC030 08/07 Q1000
BIEG2018-08-22 00.00METAR BIEG 220000Z 16002KT 9999 FEW025 OVC033 09/07 Q1000
BIEG2018-08-21 23.00METAR BIEG 212300Z 19001KT 9999 FEW025 BKN040 09/07 Q1000
BIKF2018-08-22 01.00METAR BIKF 220100Z 29004KT 9999 FEW036 SCT055 BKN100 09/09 Q1002
BIKF2018-08-22 00.30METAR BIKF 220030Z 29005KT 9999 FEW031 BKN055 BKN100 09/09 Q1002
BIKF2018-08-22 00.00METAR BIKF 220000Z 30006KT 9999 FEW028 BKN050 09/09 Q1003
BIKF2018-08-21 23.30METAR BIKF 212330Z 30006KT 9999 FEW008 SCT035 BKN060 09/08 Q1003
BIKF2018-08-21 23.00METAR BIKF 212300Z 29004KT 270V350 9999 FEW009 SCT036 BKN049 09/08 Q1003
BIKF2018-08-21 22.30METAR BIKF 212230Z 30003KT 9999 FEW009 SCT045 BKN085 09/08 Q1003
BIRK2018-08-22 01.00METAR BIRK 220100Z 28006KT 9999 SCT011 BKN056 OVC100 10/08 Q1002
BIRK2018-08-22 00.00METAR BIRK 220000Z 28006KT 9999 SCT012 BKN041 OVC100 10/07 Q1003
BIRK2018-08-21 23.00METAR BIRK 212300Z 28006KT 9999 FEW012 BKN022 OVC054 10/07 Q1003

Textaspár eru skrifaðar af vakthafandi veðurfræðingi á Veðurstofu Íslands.




Aðrir tengdir vefir



Þetta vefsvæði byggir á Eplica